LHKE

Details ICAO LHKE
Name KECSKEMET
Region Hungary
Timezone Europe/Budapest (UTC+1.0)
Plans Departing 10
Arriving 7
Stats Elevation 376 ft / 115 m (AMSL)
Location 46.917500° 19.749222°
Runways 1
Magnetic Variation 4.802° E
Sunrise 2017-12-12 06:18:40 UTC / 2017-12-12 07:18:40 Local
Sunset 2017-12-12 14:53:36 UTC / 2017-12-12 15:53:36 Local
Advertisement - Login to hide

Runways

ID Width Length Bearing (true) Bearing (mag) Surface Threshold Offset Overrun Length
12 197 ft / 60 m 8,178 ft / 2,493 m 123.04° 118.24° Concrete 0 ft / 0 m 200 ft / 61 m
30 197 ft / 60 m 8,178 ft / 2,493 m 303.06° 298.26° Concrete 0 ft / 0 m 200 ft / 61 m

Map

Weather


0- 5 10 15 20 25 30 35+ Temperature / ° C

Clouds and Precipitation
Forecast for 2017-12-12 06:00 UTC. Updated an hour ago

Ground ~20,000 ft ~40,000 ft Winds

METAR

LHKE 120215Z 17014KT 140V210 CAVOK 08/03 Q1004 NOSIG RMK BLU

TAF

Not found

Frequencies

Tower 135.75 MHz TWR
Approach 120.25 MHz APP
Warning: Do not use this data for real-world aviation or navigation. No guarantee of current accuracy is given.